Time;durP1;ratioP1;P1;durP2;ratioP2;P2;SDS_P1;SDS_P2;PMS_P1;PMS_P2;Temp;Humidity;BMP_temperature;BMP_pressure;BME280_temperature;BME280_humidity;BME280_pressure;Samples;Min_cycle;Max_cycle;Signal;HPM_P1;HPM_P2
2021/07/15 00:00:53;;;;;;;;;10.50;8.75;;;;;-143.39;100.00;63593.47;4946642;28;45438;-87
2021/07/15 00:03:26;;;;;;;;;12.00;10.25;;;;;-143.39;100.00;63593.47;4966476;28;45495;-87
2021/07/15 00:05:53;;;;;;;;;9.00;9.00;;;;;-143.39;100.00;63593.47;4952241;28;46839;-88
2021/07/15 00:08:22;;;;;;;;;8.50;8.00;;;;;-143.39;100.00;63593.47;4964073;28;45418;-86
2021/07/15 00:10:59;;;;;;;;;12.75;10.75;;;;;-143.39;100.00;63593.47;4949083;28;45321;-87
2021/07/15 00:13:26;;;;;;;;;13.75;10.25;;;;;-143.39;100.00;63593.47;4950539;28;45598;-87
2021/07/15 00:15:55;;;;;;;;;9.00;8.75;;;;;-143.39;100.00;63593.47;4949489;28;46131;-86
2021/07/15 00:18:23;;;;;;;;;8.25;8.25;;;;;-143.39;100.00;63593.47;4966414;28;45398;-87
2021/07/15 00:20:49;;;;;;;;;9.00;9.00;;;;;-143.39;100.00;63593.47;4960843;28;45432;-86
2021/07/15 00:23:15;;;;;;;;;14.00;10.75;;;;;-143.39;100.00;63593.47;4946265;28;45449;-87
2021/07/15 00:25:42;;;;;;;;;14.25;10.25;;;;;-143.39;100.00;63593.47;4944241;28;47388;-87
2021/07/15 00:28:07;;;;;;;;;9.00;8.50;;;;;-143.39;100.00;63593.47;4946388;28;45709;-87
2021/07/15 00:30:33;;;;;;;;;11.50;9.00;;;;;-143.39;100.00;63593.47;4964566;28;45313;-86
2021/07/15 00:32:59;;;;;;;;;9.50;9.00;;;;;-143.39;100.00;63593.47;4967486;28;45284;-87
2021/07/15 00:35:25;;;;;;;;;10.75;10.00;;;;;-143.39;100.00;63593.47;4949210;28;47100;-87
2021/07/15 00:37:50;;;;;;;;;13.50;10.25;;;;;-143.39;100.00;63593.47;4947226;28;45196;-87
2021/07/15 00:40:17;;;;;;;;;11.25;11.25;;;;;-143.39;100.00;63593.47;4963757;28;45490;-87
2021/07/15 00:42:43;;;;;;;;;11.00;9.75;;;;;-143.39;100.00;63593.47;4963751;28;45211;-87
2021/07/15 00:45:10;;;;;;;;;10.75;10.00;;;;;-143.39;100.00;63593.47;4963046;28;46288;-87
2021/07/15 00:47:36;;;;;;;;;14.00;10.50;;;;;-143.39;100.00;63593.47;4961429;28;45527;-87
2021/07/15 00:50:04;;;;;;;;;10.25;10.25;;;;;-143.39;100.00;63593.47;4963520;28;45336;-86
2021/07/15 00:52:29;;;;;;;;;11.00;10.75;;;;;-143.39;100.00;63593.47;4947906;28;45914;-87
2021/07/15 00:54:55;;;;;;;;;12.00;10.75;;;;;-143.39;100.00;63593.47;4976553;28;46333;-87
2021/07/15 00:57:21;;;;;;;;;10.00;9.00;;;;;-143.39;100.00;63593.47;4968475;28;45308;-87
2021/07/15 00:59:48;;;;;;;;;11.25;10.75;;;;;-143.39;100.00;63593.47;4964605;28;45224;-87
2021/07/15 01:02:14;;;;;;;;;12.50;9.00;;;;;-143.39;100.00;63593.47;4946110;28;45402;-87
2021/07/15 01:04:39;;;;;;;;;9.75;9.00;;;;;-143.39;100.00;63593.47;4971353;28;46145;-86
2021/07/15 01:07:05;;;;;;;;;12.50;12.50;;;;;-143.39;100.00;63593.47;4955468;28;45418;-87
2021/07/15 01:09:32;;;;;;;;;18.00;13.25;;;;;-143.39;100.00;63593.47;4945492;28;45415;-88
2021/07/15 01:12:22;;;;;;;;;18.25;11.25;;;;;-143.39;100.00;63593.47;4962661;28;45372;-86
2021/07/15 01:15:26;;;;;;;;;14.75;12.50;;;;;-143.39;100.00;63593.47;4964498;28;45460;-86
2021/07/15 01:18:30;;;;;;;;;11.75;11.50;;;;;-143.39;100.00;63593.47;4876679;29;45291;-86
2021/07/15 01:21:33;;;;;;;;;16.00;14.00;;;;;-143.39;100.00;63593.47;4942298;28;45579;-87
2021/07/15 01:24:23;;;;;;;;;12.00;12.00;;;;;-143.39;100.00;63593.47;4946049;28;45870;-87
2021/07/15 01:27:26;;;;;;;;;13.25;13.00;;;;;-143.39;100.00;63593.47;4952260;28;47368;-86
2021/07/15 01:30:10;;;;;;;;;15.00;12.00;;;;;-143.39;100.00;63593.47;4962190;28;45463;-87
2021/07/15 01:33:00;;;;;;;;;16.25;12.00;;;;;-143.39;100.00;63593.47;4944879;28;45346;-87
2021/07/15 01:35:48;;;;;;;;;12.25;10.50;;;;;-143.39;100.00;63593.47;4945025;28;45526;-87
2021/07/15 01:38:17;;;;;;;;;15.00;11.50;;;;;-143.39;100.00;63593.47;4963385;28;47012;-87
2021/07/15 01:40:49;;;;;;;;;16.00;12.25;;;;;-143.39;100.00;63593.47;4964852;28;45461;-87
2021/07/15 01:43:26;;;;;;;;;15.50;13.00;;;;;-143.39;100.00;63593.47;4945876;28;45354;-87
2021/07/15 01:45:52;;;;;;;;;13.50;12.75;;;;;-143.39;100.00;63593.47;4945735;28;45927;-87
2021/07/15 01:48:18;;;;;;;;;13.00;13.00;;;;;-143.39;100.00;63593.47;4960490;28;45654;-87
2021/07/15 01:50:44;;;;;;;;;16.00;15.00;;;;;-143.39;100.00;63593.47;4962048;28;45250;-87
2021/07/15 01:53:10;;;;;;;;;14.75;13.50;;;;;-143.39;100.00;63593.47;4962403;28;45535;-87
2021/07/15 01:55:38;;;;;;;;;16.50;12.50;;;;;-143.39;100.00;63593.47;4947348;28;46071;-87
2021/07/15 01:58:06;;;;;;;;;12.75;10.50;;;;;-143.39;100.00;63593.47;4969617;28;48308;-87
2021/07/15 02:00:33;;;;;;;;;17.00;14.50;;;;;-143.39;100.00;63593.47;4967920;28;45148;-87
2021/07/15 02:03:00;;;;;;;;;17.75;15.00;;;;;-143.39;100.00;63593.47;4944463;28;45306;-87
2021/07/15 02:05:27;;;;;;;;;13.75;13.00;;;;;-143.39;100.00;63593.47;4954616;28;45477;-87
2021/07/15 02:07:53;;;;;;;;;15.00;12.25;;;;;-143.39;100.00;63593.47;4945114;28;48238;-86
2021/07/15 02:10:24;;;;;;;;;15.75;13.75;;;;;-143.39;100.00;63593.47;4943092;28;45538;-87
2021/07/15 02:12:50;;;;;;;;;17.50;14.75;;;;;-143.39;100.00;63593.47;4960728;28;45416;-87
2021/07/15 02:15:16;;;;;;;;;15.00;12.75;;;;;-143.39;100.00;63593.47;4974380;28;45381;-87
2021/07/15 02:17:43;;;;;;;;;14.25;12.75;;;;;-143.39;100.00;63593.47;4942409;28;46514;-87
2021/07/15 02:20:12;;;;;;;;;15.50;15.50;;;;;-143.39;100.00;63593.47;4931272;28;45507;-87
2021/07/15 02:22:39;;;;;;;;;21.25;15.75;;;;;-143.39;100.00;63593.47;4947981;28;45407;-87
2021/07/15 02:25:06;;;;;;;;;17.25;14.75;;;;;-143.39;100.00;63593.47;4977162;28;45373;-87
2021/07/15 02:27:34;;;;;;;;;17.50;14.50;;;;;-143.39;100.00;63593.47;4926870;28;48500;-87
2021/07/15 02:30:00;;;;;;;;;13.75;12.00;;;;;-143.39;100.00;63593.47;4943901;28;45346;-87
2021/07/15 02:32:26;;;;;;;;;14.00;14.00;;;;;-143.39;100.00;63593.47;4972599;28;45461;-87
2021/07/15 02:34:58;;;;;;;;;18.75;12.50;;;;;-143.39;100.00;63593.47;4946477;28;45251;-86
2021/07/15 02:37:30;;;;;;;;;17.25;15.00;;;;;-143.39;100.00;63593.47;4941624;28;47619;-86
2021/07/15 02:39:55;;;;;;;;;14.50;13.00;;;;;-143.39;100.00;63593.47;4942771;28;45463;-87
2021/07/15 02:42:21;;;;;;;;;13.75;12.75;;;;;-143.39;100.00;63593.47;4944283;28;45398;-87
2021/07/15 02:44:47;;;;;;;;;15.50;13.50;;;;;-143.39;100.00;63593.47;4943813;28;45468;-87
2021/07/15 02:47:13;;;;;;;;;16.75;14.75;;;;;-143.39;100.00;63593.47;4941622;28;47024;-87
2021/07/15 02:49:40;;;;;;;;;14.25;13.50;;;;;-143.39;100.00;63593.47;4938203;28;45716;-87
2021/07/15 02:52:07;;;;;;;;;14.50;13.00;;;;;-143.39;100.00;63593.47;4940970;28;45217;-86
2021/07/15 02:54:32;;;;;;;;;14.75;13.00;;;;;-143.39;100.00;63593.47;4946624;28;45252;-87
2021/07/15 02:57:09;;;;;;;;;16.25;14.50;;;;;-143.39;100.00;63593.47;4972699;28;46310;-87
2021/07/15 02:59:47;;;;;;;;;15.25;14.75;;;;;-143.39;100.00;63593.47;4943952;28;45311;-87
2021/07/15 03:02:31;;;;;;;;;13.00;11.75;;;;;-143.39;100.00;63593.47;4966756;28;45400;-87
2021/07/15 03:05:08;;;;;;;;;14.75;14.00;;;;;-143.39;100.00;63593.47;4952611;28;45504;-87
2021/07/15 03:07:45;;;;;;;;;17.25;12.00;;;;;-143.39;100.00;63593.47;4946194;28;46245;-87
2021/07/15 03:10:14;;;;;;;;;15.00;14.75;;;;;-143.39;100.00;63593.47;4942831;28;45366;-86
2021/07/15 03:12:41;;;;;;;;;16.00;14.50;;;;;-143.39;100.00;63593.47;4960834;28;45669;-87
2021/07/15 03:15:07;;;;;;;;;14.50;14.50;;;;;-143.39;100.00;63593.47;4943530;28;45533;-86
2021/07/15 03:17:37;;;;;;;;;15.50;14.00;;;;;-143.39;100.00;63593.47;4960825;28;45542;-86
2021/07/15 03:20:26;;;;;;;;;19.50;15.50;;;;;-143.39;100.00;63593.47;4953358;28;45401;-87
2021/07/15 03:23:05;;;;;;;;;17.75;13.50;;;;;-143.39;100.00;63593.47;4940858;28;45443;-87
2021/07/15 03:25:31;;;;;;;;;16.00;13.50;;;;;-143.39;100.00;63593.47;4962820;28;45265;-87
2021/07/15 03:28:00;;;;;;;;;19.75;14.25;;;;;-143.39;100.00;63593.47;4963279;28;45414;-87
2021/07/15 03:30:26;;;;;;;;;17.75;16.00;;;;;-143.39;100.00;63593.47;4962990;28;45554;-87
2021/07/15 03:32:53;;;;;;;;;12.25;12.25;;;;;-143.39;100.00;63593.47;4960190;28;45520;-87
2021/07/15 03:35:19;;;;;;;;;17.25;14.75;;;;;-143.39;100.00;63593.47;4961249;28;45315;-87
2021/07/15 03:37:48;;;;;;;;;16.75;15.00;;;;;-143.39;100.00;63593.47;4969197;28;45428;-87
2021/07/15 03:40:16;;;;;;;;;14.00;13.75;;;;;-143.39;100.00;63593.47;4950001;28;45398;-87
2021/07/15 03:42:44;;;;;;;;;16.25;14.75;;;;;-143.39;100.00;63593.47;4940281;28;45438;-87
2021/07/15 03:45:12;;;;;;;;;17.00;14.50;;;;;-143.39;100.00;63593.47;4941433;28;45747;-87
2021/07/15 03:47:38;;;;;;;;;16.50;11.75;;;;;-143.39;100.00;63593.47;4941165;28;46017;-87
2021/07/15 03:50:06;;;;;;;;;17.75;12.75;;;;;-143.39;100.00;63593.47;4960892;28;45459;-87
2021/07/15 03:52:33;;;;;;;;;12.75;11.25;;;;;-143.39;100.00;63593.47;4945960;28;45392;-87
2021/07/15 03:54:59;;;;;;;;;17.50;13.75;;;;;-143.39;100.00;63593.47;4936558;28;45574;-87
2021/07/15 03:57:27;;;;;;;;;16.50;14.50;;;;;-143.39;100.00;63593.47;4963336;28;46172;-87
2021/07/15 03:59:55;;;;;;;;;16.75;14.25;;;;;-143.39;100.00;63593.47;4967176;28;45243;-87
2021/07/15 04:02:24;;;;;;;;;13.75;13.00;;;;;-143.39;100.00;63593.47;4953358;28;45478;-87
2021/07/15 04:04:55;;;;;;;;;15.50;13.75;;;;;-143.39;100.00;63593.47;4941740;28;45513;-87
2021/07/15 04:07:23;;;;;;;;;18.50;14.50;;;;;-143.39;100.00;63593.47;4955527;28;46272;-86
2021/07/15 04:09:50;;;;;;;;;17.00;12.50;;;;;-143.39;100.00;63593.47;4945827;28;45485;-87
2021/07/15 04:12:20;;;;;;;;;14.75;14.00;;;;;-143.39;100.00;63593.47;4964856;28;45171;-87
2021/07/15 04:15:03;;;;;;;;;16.25;15.00;;;;;-143.39;100.00;63593.47;4943799;28;45421;-87
2021/07/15 04:17:36;;;;;;;;;15.50;13.50;;;;;-143.39;100.00;63593.47;4961440;28;46167;-87
2021/07/15 04:20:08;;;;;;;;;15.25;13.50;;;;;-143.39;100.00;63593.47;4957372;28;45311;-87
2021/07/15 04:22:36;;;;;;;;;15.75;13.75;;;;;-143.39;100.00;63593.47;4960406;28;45326;-87
2021/07/15 04:25:03;;;;;;;;;15.25;13.75;;;;;-143.39;100.00;63593.47;4942762;28;45265;-87
2021/07/15 04:27:30;;;;;;;;;17.00;15.00;;;;;-143.39;100.00;63593.47;4960225;28;45317;-87
2021/07/15 04:30:03;;;;;;;;;16.00;14.50;;;;;-143.39;100.00;63593.47;4964272;28;45287;-87
2021/07/15 04:32:35;;;;;;;;;16.00;14.25;;;;;-143.39;100.00;63593.47;4950089;28;45480;-87
2021/07/15 04:35:02;;;;;;;;;17.25;13.75;;;;;-143.39;100.00;63593.47;4964258;28;45243;-87
2021/07/15 04:37:28;;;;;;;;;15.00;14.00;;;;;-143.39;100.00;63593.47;4947335;28;47249;-87
2021/07/15 04:39:56;;;;;;;;;14.75;14.50;;;;;-143.39;100.00;63593.47;4964149;28;45703;-87
2021/07/15 04:42:23;;;;;;;;;17.00;14.00;;;;;-143.39;100.00;63593.47;4963947;28;45457;-86
2021/07/15 04:44:49;;;;;;;;;16.75;16.25;;;;;-143.39;100.00;63593.47;4946252;28;45260;-87
2021/07/15 04:47:19;;;;;;;;;16.25;13.75;;;;;-143.39;100.00;63593.47;4949980;28;46254;-87
2021/07/15 04:49:45;;;;;;;;;11.25;11.25;;;;;-143.39;100.00;63593.47;4964030;28;45357;-87
2021/07/15 04:52:12;;;;;;;;;18.00;13.00;;;;;-143.39;100.00;63593.47;4947145;28;45359;-87
2021/07/15 04:54:39;;;;;;;;;17.00;15.50;;;;;-143.39;100.00;63593.47;4967702;28;45486;-87
2021/07/15 04:57:09;;;;;;;;;16.00;13.75;;;;;-143.39;100.00;63593.47;4966672;28;45349;-88
2021/07/15 04:59:39;;;;;;;;;19.25;15.25;;;;;-143.39;100.00;63593.47;4952847;28;45407;-87
2021/07/15 05:02:05;;;;;;;;;20.00;15.00;;;;;-143.39;100.00;63593.47;4933908;28;45310;-88
2021/07/15 05:04:31;;;;;;;;;16.50;14.25;;;;;-143.39;100.00;63593.47;4952597;28;45431;-87
2021/07/15 05:06:57;;;;;;;;;10.75;9.25;;;;;-143.39;100.00;63593.47;4947556;28;45599;-86
2021/07/15 05:09:22;;;;;;;;;21.25;14.50;;;;;-143.39;100.00;63593.47;4948983;28;45238;-86
2021/07/15 05:11:48;;;;;;;;;14.00;14.00;;;;;-143.39;100.00;63593.47;4946244;28;45233;-87
2021/07/15 05:14:14;;;;;;;;;15.25;13.25;;;;;-143.39;100.00;63593.47;4963755;28;45393;-86
2021/07/15 05:16:39;;;;;;;;;18.00;13.25;;;;;-143.39;100.00;63593.47;4947446;28;46469;-87
2021/07/15 05:19:05;;;;;;;;;12.75;12.75;;;;;-143.39;100.00;63593.47;4964706;28;45419;-87
2021/07/15 05:21:31;;;;;;;;;18.50;13.50;;;;;-143.39;100.00;63593.47;4962118;28;45319;-86
2021/07/15 05:23:56;;;;;;;;;17.75;14.00;;;;;-143.39;100.00;63593.47;4952548;28;45433;-86
2021/07/15 05:26:22;;;;;;;;;16.00;15.25;;;;;-143.39;100.00;63593.47;4947618;28;46278;-87
2021/07/15 05:28:48;;;;;;;;;16.75;13.75;;;;;-143.39;100.00;63593.47;4944304;28;45513;-87
2021/07/15 05:31:14;;;;;;;;;15.75;13.50;;;;;-143.39;100.00;63593.47;4962914;28;45262;-87
2021/07/15 05:33:39;;;;;;;;;20.25;13.75;;;;;-143.39;100.00;63593.47;4948162;28;45886;-87
2021/07/15 05:36:05;;;;;;;;;12.25;8.00;;;;;-143.39;100.00;63593.47;4965275;28;45508;-87
2021/07/15 05:38:30;;;;;;;;;16.00;14.75;;;;;-143.39;100.00;63593.47;4964766;28;45360;-87
2021/07/15 05:40:56;;;;;;;;;12.50;12.00;;;;;-143.39;100.00;63593.47;4948781;28;45328;-87
2021/07/15 05:43:21;;;;;;;;;17.25;14.00;;;;;-143.39;100.00;63593.47;4960716;28;44822;-87
2021/07/15 05:45:47;;;;;;;;;14.50;12.25;;;;;-143.39;100.00;63593.47;4930812;28;47034;-87
2021/07/15 05:48:12;;;;;;;;;16.50;13.50;;;;;-143.39;100.00;63593.47;4959188;28;45210;-87
2021/07/15 05:50:38;;;;;;;;;17.75;12.75;;;;;-143.39;100.00;63593.47;4935229;28;45729;-87
2021/07/15 05:53:03;;;;;;;;;17.50;13.25;;;;;-143.39;100.00;63593.47;4959990;28;45595;-87
2021/07/15 05:55:29;;;;;;;;;18.00;14.25;;;;;-143.39;100.00;63593.47;4951463;28;48502;-87
2021/07/15 05:57:55;;;;;;;;;13.50;13.25;;;;;-143.39;100.00;63593.47;4957056;28;45501;-87
2021/07/15 06:00:20;;;;;;;;;15.50;13.50;;;;;-143.39;100.00;63593.47;4940761;28;45584;-87
2021/07/15 06:02:46;;;;;;;;;15.00;13.50;;;;;-143.39;100.00;63593.47;4965419;28;45459;-87
2021/07/15 06:05:12;;;;;;;;;18.00;14.25;;;;;-143.39;100.00;63593.47;4951863;28;47339;-87
2021/07/15 06:07:37;;;;;;;;;15.25;14.50;;;;;-143.39;100.00;63593.47;4961157;28;45454;-87
2021/07/15 06:10:07;;;;;;;;;17.50;14.25;;;;;-143.39;100.00;63593.47;4957194;28;45408;-87
2021/07/15 06:12:32;;;;;;;;;16.00;12.00;;;;;-143.39;100.00;63593.47;4960795;28;45356;-87
2021/07/15 06:14:58;;;;;;;;;12.75;11.25;;;;;-143.39;100.00;63593.47;4945915;28;47106;-87
2021/07/15 06:17:23;;;;;;;;;14.25;14.00;;;;;-143.39;100.00;63593.47;4960075;28;46406;-87
2021/07/15 06:19:51;;;;;;;;;15.00;10.75;;;;;-143.39;100.00;63593.47;4944092;28;45485;-87
2021/07/15 06:22:17;;;;;;;;;14.00;12.75;;;;;-143.39;100.00;63593.47;4963000;28;45545;-87
2021/07/15 06:24:42;;;;;;;;;15.75;13.25;;;;;-143.39;100.00;63593.47;4959663;28;45617;-87
2021/07/15 06:27:08;;;;;;;;;13.25;10.50;;;;;-143.39;100.00;63593.47;4965649;28;45447;-86
2021/07/15 06:29:33;;;;;;;;;18.50;13.50;;;;;-143.39;100.00;63593.47;4975572;28;45390;-86
2021/07/15 06:31:59;;;;;;;;;14.25;11.25;;;;;-143.39;100.00;63593.47;4958876;28;45411;-87
2021/07/15 06:34:24;;;;;;;;;14.50;12.50;;;;;-143.39;100.00;63593.47;4972458;28;45459;-86
2021/07/15 06:36:51;;;;;;;;;16.50;15.25;;;;;-143.39;100.00;63593.47;4966773;28;45362;-87
2021/07/15 06:39:17;;;;;;;;;13.50;11.00;;;;;-143.39;100.00;63593.47;4963633;28;45318;-87
2021/07/15 06:41:42;;;;;;;;;17.50;15.25;;;;;-143.39;100.00;63593.47;4967940;28;45362;-88
2021/07/15 06:44:09;;;;;;;;;11.50;11.00;;;;;-143.39;100.00;63593.47;4974864;28;45316;-89
2021/07/15 06:46:34;;;;;;;;;16.25;11.50;;;;;-143.39;100.00;63593.47;4967495;28;45837;-86
2021/07/15 06:49:00;;;;;;;;;13.25;13.00;;;;;-143.39;100.00;63593.47;4942291;28;45633;-87
2021/07/15 06:51:26;;;;;;;;;14.25;12.50;;;;;-143.39;100.00;63593.47;4966143;28;45519;-87
2021/07/15 06:53:52;;;;;;;;;18.50;14.00;;;;;-143.39;100.00;63593.47;4939540;28;47001;-86
2021/07/15 06:56:17;;;;;;;;;11.25;11.25;;;;;-143.39;100.00;63593.47;4950923;28;46149;-87
2021/07/15 06:58:42;;;;;;;;;14.25;12.00;;;;;-143.39;100.00;63593.47;4960639;28;45409;-87
2021/07/15 07:01:09;;;;;;;;;15.50;12.25;;;;;-143.39;100.00;63593.47;4949388;28;45552;-88
2021/07/15 07:03:35;;;;;;;;;10.50;10.00;;;;;-143.39;100.00;63593.47;4952537;28;45508;-85
2021/07/15 07:06:01;;;;;;;;;16.00;12.75;;;;;-143.39;100.00;63593.47;4944239;28;45429;-87
2021/07/15 07:08:26;;;;;;;;;12.50;10.50;;;;;-143.39;100.00;63593.47;4934100;28;45845;-87
2021/07/15 07:10:52;;;;;;;;;15.75;11.25;;;;;-143.39;100.00;63593.47;4938296;28;45471;-86
2021/07/15 07:13:18;;;;;;;;;11.50;11.50;;;;;-143.39;100.00;63593.47;4953366;28;45637;-86
2021/07/15 07:15:44;;;;;;;;;17.00;13.25;;;;;-143.39;100.00;63593.47;4946843;28;45979;-86
2021/07/15 07:18:09;;;;;;;;;12.50;11.75;;;;;-143.39;100.00;63593.47;4955347;28;45499;-86
2021/07/15 07:20:35;;;;;;;;;18.25;14.00;;;;;-143.39;100.00;63593.47;4952886;28;46578;-87
2021/07/15 07:23:02;;;;;;;;;15.75;11.25;;;;;-143.39;100.00;63593.47;4962312;28;46540;-86
2021/07/15 07:25:28;;;;;;;;;14.75;12.00;;;;;-143.39;100.00;63593.47;4942351;28;45776;-86
2021/07/15 07:27:53;;;;;;;;;15.75;12.00;;;;;-143.39;100.00;63593.47;4941659;28;45471;-86
2021/07/15 07:30:19;;;;;;;;;11.75;11.25;;;;;-143.39;100.00;63593.47;4954979;28;45534;-87
2021/07/15 07:32:46;;;;;;;;;14.00;11.00;;;;;-143.39;100.00;63593.47;4960200;28;45888;-88
2021/07/15 07:35:12;;;;;;;;;12.50;11.00;;;;;-143.39;100.00;63593.47;4948400;28;45357;-86
2021/07/15 07:37:38;;;;;;;;;17.25;12.00;;;;;-143.39;100.00;63593.47;4961841;28;45603;-88
2021/07/15 07:40:06;;;;;;;;;12.50;11.75;;;;;-143.39;100.00;63593.47;4935293;28;45608;-89
2021/07/15 07:42:31;;;;;;;;;11.75;8.75;;;;;-143.39;100.00;63593.47;4955837;28;45373;-89
2021/07/15 07:44:57;;;;;;;;;10.00;10.00;;;;;-143.39;100.00;63593.47;4953122;28;45706;-88
2021/07/15 07:47:23;;;;;;;;;14.25;12.50;;;;;-143.39;100.00;63593.47;4938850;28;45391;-89
2021/07/15 07:49:59;;;;;;;;;10.75;9.25;;;;;-143.39;100.00;63593.47;4962659;28;45318;-89
2021/07/15 07:52:25;;;;;;;;;10.25;9.75;;;;;-143.39;100.00;63593.47;4962230;28;48044;-90
2021/07/15 07:54:51;;;;;;;;;14.50;10.75;;;;;-143.39;100.00;63593.47;4964807;28;45410;-87
2021/07/15 07:57:16;;;;;;;;;9.00;9.00;;;;;-143.39;100.00;63593.47;4961285;28;45493;-89
2021/07/15 07:59:42;;;;;;;;;9.50;9.50;;;;;-143.39;100.00;63593.47;4951836;28;45500;-88
2021/07/15 08:02:07;;;;;;;;;10.75;9.00;;;;;-143.39;100.00;63593.47;4954501;28;45430;-89
2021/07/15 08:04:33;;;;;;;;;12.25;10.50;;;;;-143.39;100.00;63593.47;4948989;28;45565;-89
2021/07/15 08:06:58;;;;;;;;;9.50;8.75;;;;;-143.39;100.00;63593.47;4955518;28;45342;-89
2021/07/15 08:09:25;;;;;;;;;10.75;9.00;;;;;-143.39;100.00;63593.47;4964123;28;45719;-89
2021/07/15 08:11:54;;;;;;;;;12.00;8.50;;;;;-143.39;100.00;63593.47;4943428;28;47215;-90
2021/07/15 08:14:21;;;;;;;;;9.25;8.25;;;;;-143.39;100.00;63593.47;4949862;28;45441;-90
2021/07/15 08:16:47;;;;;;;;;7.00;5.50;;;;;-143.39;100.00;63593.47;4959421;28;46750;-89
2021/07/15 08:19:12;;;;;;;;;8.00;8.00;;;;;-143.39;100.00;63593.47;4962775;28;45475;-90
2021/07/15 08:21:38;;;;;;;;;8.25;6.25;;;;;-143.39;100.00;63593.47;4962092;28;45678;-90
2021/07/15 08:24:04;;;;;;;;;8.25;8.25;;;;;-143.39;100.00;63593.47;4944103;28;45800;-90
2021/07/15 08:26:30;;;;;;;;;7.50;7.50;;;;;-143.39;100.00;63593.47;4941050;28;45637;-90
2021/07/15 08:28:55;;;;;;;;;7.25;6.50;;;;;-143.39;100.00;63593.47;4972582;28;45809;-90
2021/07/15 08:31:25;;;;;;;;;9.75;8.50;;;;;-143.39;100.00;63593.47;4941449;28;47346;-90
2021/07/15 08:33:50;;;;;;;;;8.50;7.25;;;;;-143.39;100.00;63593.47;4950027;28;45760;-90
2021/07/15 08:36:16;;;;;;;;;9.25;8.75;;;;;-143.39;100.00;63593.47;4947002;28;45366;-89
2021/07/15 08:38:42;;;;;;;;;10.00;9.00;;;;;-143.39;100.00;63593.47;4951077;28;45680;-90
2021/07/15 08:41:08;;;;;;;;;11.75;9.00;;;;;-143.39;100.00;63593.47;4960942;28;48181;-90
2021/07/15 08:43:36;;;;;;;;;7.50;7.50;;;;;-143.39;100.00;63593.47;4954697;28;45391;-90
2021/07/15 08:46:04;;;;;;;;;8.50;8.00;;;;;-143.39;100.00;63593.47;4970489;28;45482;-91
2021/07/15 08:48:32;;;;;;;;;9.50;8.25;;;;;-143.39;100.00;63593.47;4947744;28;45601;-92
2021/07/15 08:50:58;;;;;;;;;10.00;8.25;;;;;-143.39;100.00;63593.47;4974307;28;45558;-91
2021/07/15 08:53:27;;;;;;;;;9.25;8.00;;;;;-143.39;100.00;63593.47;4955725;28;45601;-91
2021/07/15 08:58:38;;;;;;;;;7.50;7.50;;;;;-143.39;100.00;63593.47;4968930;28;45576;-91
2021/07/15 09:01:04;;;;;;;;;9.50;8.25;;;;;-143.39;100.00;63593.47;4947627;28;47119;-92
2021/07/15 09:03:29;;;;;;;;;9.00;7.00;;;;;-143.39;100.00;63593.47;4967449;28;45839;-91
2021/07/15 09:05:55;;;;;;;;;6.50;5.75;;;;;-143.39;100.00;63593.47;4943375;28;45489;-89
2021/07/15 09:08:21;;;;;;;;;8.00;8.00;;;;;-143.39;100.00;63593.47;4945955;28;45453;-90
2021/07/15 09:10:46;;;;;;;;;9.00;9.00;;;;;-143.39;100.00;63593.47;4943703;28;47197;-90
2021/07/15 09:13:12;;;;;;;;;6.50;6.50;;;;;-143.39;100.00;63593.47;4960389;28;45519;-91
2021/07/15 09:15:39;;;;;;;;;9.50;7.00;;;;;-143.39;100.00;63593.47;4940949;28;45529;-91
2021/07/15 09:18:12;;;;;;;;;8.00;8.00;;;;;-143.39;100.00;63593.47;4956214;28;45804;-91
2021/07/15 09:20:38;;;;;;;;;6.50;6.50;;;;;-143.39;100.00;63593.47;4956954;28;45876;-90
2021/07/15 09:23:06;;;;;;;;;7.25;6.75;;;;;-143.39;100.00;63593.47;4967974;28;45536;-91
2021/07/15 09:25:38;;;;;;;;;10.50;8.25;;;;;-143.39;100.00;63593.47;4942022;28;45504;-91
2021/07/15 09:28:05;;;;;;;;;10.00;10.00;;;;;-143.39;100.00;63593.47;4947513;28;45996;-90
2021/07/15 09:30:32;;;;;;;;;9.00;8.25;;;;;-143.39;100.00;63593.47;4959914;28;45738;-90
2021/07/15 09:33:06;;;;;;;;;7.00;6.75;;;;;-143.39;100.00;63593.47;4941811;28;45785;-88
2021/07/15 09:35:37;;;;;;;;;6.50;6.50;;;;;-143.39;100.00;63593.47;4969556;28;45849;-89
2021/07/15 09:38:11;;;;;;;;;8.25;8.25;;;;;-143.39;100.00;63593.47;4952841;28;45802;-90
2021/07/15 09:40:38;;;;;;;;;8.00;7.25;;;;;-143.39;100.00;63593.47;4938457;28;47392;-89
2021/07/15 09:43:15;;;;;;;;;9.00;7.00;;;;;-143.39;100.00;63593.47;4960255;28;46433;-90
2021/07/15 09:45:41;;;;;;;;;9.75;7.50;;;;;-143.39;100.00;63593.47;4940024;28;45378;-91
2021/07/15 09:48:33;;;;;;;;;7.00;7.00;;;;;-143.39;100.00;63593.47;4952379;28;45531;-89
2021/07/15 09:51:00;;;;;;;;;8.00;8.00;;;;;-143.39;100.00;63593.47;4960681;28;46433;-91
2021/07/15 09:53:27;;;;;;;;;10.50;10.00;;;;;-143.39;100.00;63593.47;4955892;28;45723;-90
2021/07/15 09:56:03;;;;;;;;;9.25;8.50;;;;;-143.39;100.00;63593.47;4959738;28;45533;-89
2021/07/15 09:58:37;;;;;;;;;8.75;7.25;;;;;-143.39;100.00;63593.47;4967313;28;45532;-89
2021/07/15 10:01:08;;;;;;;;;7.50;7.50;;;;;-143.39;100.00;63593.47;4973612;28;45517;-90
2021/07/15 10:03:41;;;;;;;;;12.00;9.00;;;;;-143.39;100.00;63593.47;4958856;28;45682;-89
2021/07/15 10:06:08;;;;;;;;;11.25;9.00;;;;;-143.39;100.00;63593.47;4937480;28;46061;-90
2021/07/15 10:08:35;;;;;;;;;9.50;9.00;;;;;-143.39;100.00;63593.47;4961024;28;45342;-90
2021/07/15 10:11:17;;;;;;;;;7.75;7.75;;;;;-143.39;100.00;63593.47;4956064;28;48290;-88
2021/07/15 10:13:45;;;;;;;;;7.00;7.00;;;;;-143.39;100.00;63593.47;4941853;28;46056;-89
2021/07/15 10:16:11;;;;;;;;;11.50;9.00;;;;;-143.39;100.00;63593.47;4953486;28;45852;-89
2021/07/15 10:18:40;;;;;;;;;8.25;8.25;;;;;-143.39;100.00;63593.47;4952556;28;45498;-89
2021/07/15 10:21:08;;;;;;;;;8.00;7.25;;;;;-143.39;100.00;63593.47;4954962;28;46120;-89
2021/07/15 10:23:35;;;;;;;;;8.50;8.50;;;;;-143.39;100.00;63593.47;4968933;28;45568;-89
2021/07/15 10:26:02;;;;;;;;;10.25;10.25;;;;;-143.39;100.00;63593.47;4970985;28;45541;-90
2021/07/15 10:28:29;;;;;;;;;10.00;7.75;;;;;-143.39;100.00;63593.47;4956814;28;45558;-89
2021/07/15 10:31:03;;;;;;;;;7.25;6.75;;;;;-143.39;100.00;63593.47;4958757;28;45720;-89
2021/07/15 10:33:29;;;;;;;;;7.50;7.50;;;;;-143.39;100.00;63593.47;4967608;28;45484;-89
2021/07/15 10:35:57;;;;;;;;;8.50;6.00;;;;;-143.39;100.00;63593.47;4960013;28;45444;-89
2021/07/15 10:38:23;;;;;;;;;10.75;9.25;;;;;-143.39;100.00;63593.47;4959512;28;45553;-88
2021/07/15 10:40:50;;;;;;;;;10.00;10.00;;;;;-143.39;100.00;63593.47;4957740;28;45388;-90
2021/07/15 10:43:16;;;;;;;;;11.00;10.00;;;;;-143.39;100.00;63593.47;4952964;28;45572;-87
2021/07/15 10:45:41;;;;;;;;;10.25;8.50;;;;;-143.39;100.00;63593.47;4960991;28;45800;-88
2021/07/15 10:48:09;;;;;;;;;13.25;9.25;;;;;-143.39;100.00;63593.47;4965917;28;45856;-89
2021/07/15 10:50:35;;;;;;;;;5.75;3.75;;;;;-143.39;100.00;63593.47;4952274;28;45563;-91
2021/07/15 10:53:03;;;;;;;;;10.00;8.00;;;;;-143.39;100.00;63593.47;4941506;28;45902;-89
2021/07/15 10:55:28;;;;;;;;;8.50;7.50;;;;;-143.39;100.00;63593.47;4964317;28;45360;-90
2021/07/15 10:57:54;;;;;;;;;10.25;9.25;;;;;-143.39;100.00;63593.47;4964196;28;45313;-89
2021/07/15 11:00:24;;;;;;;;;8.50;8.50;;;;;-143.39;100.00;63593.47;4944852;28;47139;-88
2021/07/15 11:03:13;;;;;;;;;7.25;6.50;;;;;-143.39;100.00;63593.47;4936601;28;45782;-89
2021/07/15 11:05:53;;;;;;;;;6.75;6.75;;;;;-143.39;100.00;63593.47;4967241;28;45448;-90
2021/07/15 11:09:10;;;;;;;;;;;;;;;;;;;;;